Aérodrome :
LOGIN :

S'inscrire | Disclaimer

   EN    FR    IT 

 










Légende :    VFR   VFR Marginal   IFR   IFR Intensif   IFR Très Intensif
Visi : 
Plafond : 
>= 8 km
>= 3000ft
5 à 8 km
1000 à 3000 ft
1500m à 5 km
500 à 1000 ft
800 à 1500m
200 à 500 ft
< 800m
< 200 ft
Symboles :   Orages  Brouillard  Fortes neiges  Fortes précipitations  Vent > 20 kt
SIGMETs :   Divers  Orages  Givrage  Turbulence  Onde Orograph.  Cendres Volcan.







- Altitude de l'aérodrome : 1411 ft
- Code IATA : GVA


LSGG - Genève Cointrin

DERNIER METAR :
  • 230350Z 33003KT CAVOK 16/14 Q1017 NOSIG

METARs EXPIRÉS :
  • 230320Z AUTO VRB01KT CAVOK 16/14 Q1017 NOSIG
  • 230250Z AUTO VRB01KT CAVOK 17/14 Q1016 NOSIG
  • 230220Z AUTO VRB01KT CAVOK 17/14 Q1016 NOSIG
  • 230150Z AUTO VRB01KT CAVOK 18/14 Q1016 NOSIG
  • 230120Z AUTO VRB02KT CAVOK 18/14 Q1016 NOSIG

TAF TAF LSGG
Valide du 23 à 03h jusqu'au 24 à 09h UTC


230208Z 2303/2409 05007KT CAVOK TX28/2315Z TN17/2304Z TN15/2404Z
BECMG 2306/2308 05013KT 9999 FEW045
BECMG 2318/2320 VRB03KT CAVOK
ATIS : +41 22 417 40 81
Pas de NOTAMs connus pour ce terrain.



MET'MAP, la Météo Aéronautique d'un coup d'oeil ! - Copyright ORBIFLY Décembre 2007 - Disclaimer

ORBIFLY MET'MAP TEAM :

Programmation & Développement : Alexandra Zaïnal
Conception & Développement : Baudouin d'Aumeries
Co-Programmation & Développement : Marc-Olivier Méhu
Soutien technique & logistique : Manuel Goepfert

Contact : metmap@orbifly.com




SOURCES & CREDITS :

   NOAA